createdAt,value
2019-02-16T00:00:13.413Z,988.65
2019-02-16T00:01:13.654Z,988.63
2019-02-16T00:03:17.831Z,988.59
2019-02-16T00:04:18.064Z,988.59
2019-02-16T00:06:23.227Z,988.56
2019-02-16T00:07:23.463Z,988.59
2019-02-16T00:09:27.631Z,988.56
2019-02-16T00:10:27.891Z,988.58
2019-02-16T00:12:32.019Z,988.57
2019-02-16T00:13:32.258Z,988.54
2019-02-16T00:15:36.426Z,988.54
2019-02-16T00:16:36.658Z,988.48
2019-02-16T00:18:40.821Z,988.49
2019-02-16T00:19:41.055Z,988.53
2019-02-16T00:21:45.206Z,988.49
2019-02-16T00:22:45.446Z,988.46
2019-02-16T00:24:49.609Z,988.45
2019-02-16T00:25:49.844Z,988.45
2019-02-16T00:27:42.921Z,988.45
2019-02-16T00:28:43.158Z,988.46
2019-02-16T00:30:47.334Z,988.41
2019-02-16T00:31:47.569Z,988.44
2019-02-16T00:33:51.735Z,988.38
2019-02-16T00:34:51.976Z,988.38
2019-02-16T00:36:56.127Z,988.40
2019-02-16T00:37:56.352Z,988.37
2019-02-16T00:40:00.530Z,988.37
2019-02-16T00:41:00.768Z,988.35
2019-02-16T00:43:04.919Z,988.35
2019-02-16T00:44:05.153Z,988.36
2019-02-16T00:46:09.324Z,988.35
2019-02-16T00:47:09.560Z,988.33
2019-02-16T00:49:13.736Z,988.33
2019-02-16T00:50:13.960Z,988.29
2019-02-16T00:52:18.103Z,988.30
2019-02-16T00:53:18.349Z,988.32
2019-02-16T00:55:22.521Z,988.28
2019-02-16T00:56:22.759Z,988.28
2019-02-16T00:58:26.908Z,988.29
2019-02-16T00:59:28.028Z,988.33
2019-02-16T01:01:31.314Z,988.33
2019-02-16T01:02:31.548Z,988.33
2019-02-16T01:04:35.736Z,988.36
2019-02-16T01:05:35.965Z,988.37
2019-02-16T01:07:29.047Z,988.32
2019-02-16T01:08:29.278Z,988.29
2019-02-16T01:10:33.439Z,988.35
2019-02-16T01:11:33.669Z,988.33
2019-02-16T01:13:37.820Z,988.33
2019-02-16T01:14:38.048Z,988.28
2019-02-16T01:16:42.227Z,988.29
2019-02-16T01:17:42.455Z,988.25
2019-02-16T01:19:46.618Z,988.27
2019-02-16T01:20:46.853Z,988.27
2019-02-16T01:22:52.041Z,988.20
2019-02-16T01:23:52.277Z,988.25
2019-02-16T01:25:56.439Z,988.22
2019-02-16T01:26:56.671Z,988.20
2019-02-16T01:29:00.819Z,988.23
2019-02-16T01:30:01.051Z,988.22
2019-02-16T01:32:05.222Z,988.22
2019-02-16T01:33:05.460Z,988.23
2019-02-16T01:35:09.625Z,988.22
2019-02-16T01:36:09.859Z,988.19
2019-02-16T01:38:14.004Z,988.13
2019-02-16T01:39:14.240Z,988.12
2019-02-16T01:41:18.406Z,988.07
2019-02-16T01:42:18.647Z,988.05
2019-02-16T01:44:22.789Z,988.10
2019-02-16T01:45:23.018Z,988.08
2019-02-16T01:47:27.384Z,988.08
2019-02-16T01:48:27.616Z,988.09
2019-02-16T01:50:31.796Z,988.09
2019-02-16T01:51:32.357Z,988.09
2019-02-16T01:53:36.180Z,988.06
2019-02-16T01:54:36.413Z,988.10
2019-02-16T01:56:40.583Z,988.08
2019-02-16T01:57:40.821Z,988.06
2019-02-16T01:59:44.959Z,988.02
2019-02-16T02:00:45.193Z,988.05
2019-02-16T02:02:49.360Z,988.03
2019-02-16T02:03:49.600Z,988.04
2019-02-16T02:05:53.767Z,988.03
2019-02-16T02:06:54.010Z,987.99
2019-02-16T02:08:58.147Z,987.94
2019-02-16T02:09:58.383Z,987.92
2019-02-16T02:12:02.548Z,987.97
2019-02-16T02:13:02.783Z,987.92
2019-02-16T02:15:06.932Z,987.88
2019-02-16T02:16:07.165Z,987.90
2019-02-16T02:18:11.332Z,987.91
2019-02-16T02:19:11.564Z,987.90
2019-02-16T02:21:15.731Z,987.90
2019-02-16T02:22:15.964Z,987.88
2019-02-16T02:24:20.114Z,987.87
2019-02-16T02:25:20.346Z,987.85
2019-02-16T02:27:13.442Z,987.83
2019-02-16T02:28:13.677Z,987.85
2019-02-16T02:30:17.829Z,987.78
2019-02-16T02:31:18.065Z,987.86
2019-02-16T02:33:22.224Z,987.78
2019-02-16T02:34:22.454Z,987.78
2019-02-16T02:36:26.637Z,987.77
2019-02-16T02:37:26.874Z,987.78
2019-02-16T02:39:31.028Z,987.77
2019-02-16T02:40:31.250Z,987.79
2019-02-16T02:42:35.419Z,987.72
2019-02-16T02:43:35.649Z,987.72
2019-02-16T02:45:39.802Z,987.77
2019-02-16T02:46:40.025Z,987.75
2019-02-16T02:48:44.199Z,987.72
2019-02-16T02:49:44.434Z,987.77
2019-02-16T02:51:52.326Z,987.75
2019-02-16T02:52:48.825Z,987.74
2019-02-16T02:54:52.972Z,987.72
2019-02-16T02:55:53.207Z,987.74
2019-02-16T02:57:46.300Z,987.71
2019-02-16T02:58:46.533Z,987.71
2019-02-16T03:00:39.613Z,987.72
2019-02-16T03:01:39.850Z,987.71
2019-02-16T03:03:44.014Z,987.69
2019-02-16T03:04:44.247Z,987.76
2019-02-16T03:06:48.391Z,987.73
2019-02-16T03:07:48.621Z,987.75
2019-02-16T03:09:52.794Z,987.72
2019-02-16T03:10:53.042Z,987.71
2019-02-16T03:12:57.206Z,987.71
2019-02-16T03:13:57.427Z,987.69
2019-02-16T03:16:01.575Z,987.71
2019-02-16T03:17:01.809Z,987.68
2019-02-16T03:19:05.987Z,987.66
2019-02-16T03:20:06.207Z,987.66
2019-02-16T03:22:10.346Z,987.68
2019-02-16T03:23:10.631Z,987.67
2019-02-16T03:25:14.761Z,987.63
2019-02-16T03:26:14.998Z,987.61
2019-02-16T03:28:19.177Z,987.60
2019-02-16T03:29:19.411Z,987.59
2019-02-16T03:31:23.562Z,987.60
2019-02-16T03:32:23.801Z,987.64
2019-02-16T03:34:27.971Z,987.56
2019-02-16T03:35:28.205Z,987.57
2019-02-16T03:37:21.287Z,987.53
2019-02-16T03:38:21.522Z,987.57
2019-02-16T03:40:25.701Z,987.54
2019-02-16T03:41:25.927Z,987.51
2019-02-16T03:43:30.095Z,987.49
2019-02-16T03:44:30.334Z,987.55
2019-02-16T03:46:34.493Z,987.57
2019-02-16T03:47:34.737Z,987.55
2019-02-16T03:49:38.897Z,987.54
2019-02-16T03:50:39.134Z,987.50
2019-02-16T03:52:43.289Z,987.50
2019-02-16T03:53:43.523Z,987.47
2019-02-16T03:55:47.698Z,987.48
2019-02-16T03:56:47.937Z,987.44
2019-02-16T03:58:52.109Z,987.49
2019-02-16T03:59:52.343Z,987.46
2019-02-16T04:01:56.496Z,987.43
2019-02-16T04:02:56.744Z,987.41
2019-02-16T04:05:00.890Z,987.40
2019-02-16T04:06:01.132Z,987.46
2019-02-16T04:07:54.196Z,987.45
2019-02-16T04:08:54.427Z,987.40
2019-02-16T04:10:58.596Z,987.44
2019-02-16T04:11:58.831Z,987.40
2019-02-16T04:14:02.976Z,987.42
2019-02-16T04:15:03.204Z,987.43
2019-02-16T04:17:07.367Z,987.40
2019-02-16T04:18:07.599Z,987.42
2019-02-16T04:20:11.767Z,987.42
2019-02-16T04:21:12.002Z,987.41
2019-02-16T04:23:16.154Z,987.41
2019-02-16T04:24:16.381Z,987.35
2019-02-16T04:26:21.561Z,987.35
2019-02-16T04:27:21.792Z,987.32
2019-02-16T04:29:26.977Z,987.27
2019-02-16T04:30:27.208Z,987.31
2019-02-16T04:32:31.361Z,987.27
2019-02-16T04:33:31.593Z,987.26
2019-02-16T04:35:35.757Z,987.26
2019-02-16T04:36:35.991Z,987.28
2019-02-16T04:38:40.138Z,987.25
2019-02-16T04:39:40.371Z,987.26
2019-02-16T04:41:44.535Z,987.23
2019-02-16T04:42:44.769Z,987.25
2019-02-16T04:44:48.939Z,987.23
2019-02-16T04:45:49.170Z,987.23
2019-02-16T04:47:42.246Z,987.14
2019-02-16T04:48:42.481Z,987.13
2019-02-16T04:50:46.646Z,987.14
2019-02-16T04:51:46.880Z,987.15
2019-02-16T04:53:51.043Z,987.14
2019-02-16T04:54:51.261Z,987.16
2019-02-16T04:56:55.436Z,987.09
2019-02-16T04:57:55.669Z,987.11
2019-02-16T04:59:59.839Z,987.09
2019-02-16T05:01:00.081Z,987.11
2019-02-16T05:03:04.215Z,987.12
2019-02-16T05:04:04.448Z,987.14
2019-02-16T05:06:08.613Z,987.17
2019-02-16T05:07:08.843Z,987.19
2019-02-16T05:09:12.989Z,987.23
2019-02-16T05:10:13.224Z,987.23
2019-02-16T05:12:17.395Z,987.25
2019-02-16T05:13:17.621Z,987.26
2019-02-16T05:15:21.788Z,987.28
2019-02-16T05:16:22.021Z,987.27
2019-02-16T05:18:26.164Z,987.27
2019-02-16T05:19:26.397Z,987.26
2019-02-16T05:21:30.564Z,987.28
2019-02-16T05:22:30.796Z,987.27
2019-02-16T05:24:34.943Z,987.28
2019-02-16T05:25:35.172Z,987.24
2019-02-16T05:27:28.273Z,987.25
2019-02-16T05:28:28.521Z,987.25
2019-02-16T05:30:32.685Z,987.26
2019-02-16T05:31:32.976Z,987.26
2019-02-16T05:33:37.092Z,987.30
2019-02-16T05:34:37.330Z,987.31
2019-02-16T05:36:41.496Z,987.29
2019-02-16T05:37:41.728Z,987.32
2019-02-16T05:39:45.877Z,987.25
2019-02-16T05:40:46.118Z,987.27
2019-02-16T05:42:50.288Z,987.29
2019-02-16T05:43:50.522Z,987.31
2019-02-16T05:45:54.698Z,987.28
2019-02-16T05:46:54.944Z,987.28
2019-02-16T05:48:59.085Z,987.29
2019-02-16T05:49:59.318Z,987.29
2019-02-16T05:52:03.495Z,987.30
2019-02-16T05:53:03.730Z,987.29
2019-02-16T05:55:07.887Z,987.29
2019-02-16T05:56:08.124Z,987.33
2019-02-16T05:58:12.312Z,987.32
2019-02-16T05:59:12.540Z,987.31
2019-02-16T06:01:16.720Z,987.26
2019-02-16T06:02:16.941Z,987.32
2019-02-16T06:04:21.088Z,987.29
2019-02-16T06:05:21.333Z,987.29
2019-02-16T06:07:14.426Z,987.29
2019-02-16T06:08:14.675Z,987.30
2019-02-16T06:10:18.811Z,987.30
2019-02-16T06:11:19.047Z,987.30
2019-02-16T06:13:23.230Z,987.33
2019-02-16T06:14:23.465Z,987.35
2019-02-16T06:16:27.642Z,987.37
2019-02-16T06:17:27.869Z,987.39
2019-02-16T06:19:33.030Z,987.40
2019-02-16T06:20:33.257Z,987.42
2019-02-16T06:22:37.421Z,987.46
2019-02-16T06:23:37.651Z,987.44
2019-02-16T06:25:41.796Z,987.46
2019-02-16T06:26:42.022Z,987.51
2019-02-16T06:28:46.195Z,987.52
2019-02-16T06:29:46.428Z,987.49
2019-02-16T06:31:50.591Z,987.53
2019-02-16T06:32:50.824Z,987.56
2019-02-16T06:34:55.981Z,987.60
2019-02-16T06:35:56.214Z,987.59
2019-02-16T06:37:50.325Z,987.59
2019-02-16T06:38:50.559Z,987.60
2019-02-16T06:40:54.702Z,987.62
2019-02-16T06:41:54.932Z,987.63
2019-02-16T06:43:59.097Z,987.62
2019-02-16T06:44:59.338Z,987.64
2019-02-16T06:47:03.488Z,987.70
2019-02-16T06:48:03.725Z,987.71
2019-02-16T06:50:07.892Z,987.78
2019-02-16T06:51:08.124Z,987.77
2019-02-16T06:53:13.559Z,987.84
2019-02-16T06:54:12.529Z,987.84
2019-02-16T06:56:16.673Z,987.85
2019-02-16T06:57:16.910Z,987.91
2019-02-16T06:59:21.085Z,987.81
2019-02-16T07:00:21.313Z,987.83
2019-02-16T07:02:25.461Z,987.79
2019-02-16T07:03:25.700Z,987.77
2019-02-16T07:05:29.872Z,987.82
2019-02-16T07:06:30.138Z,987.82
2019-02-16T07:08:34.272Z,987.82
2019-02-16T07:09:34.506Z,987.87
2019-02-16T07:11:38.650Z,987.88
2019-02-16T07:12:38.881Z,987.85
2019-02-16T07:14:43.041Z,988.00
2019-02-16T07:15:43.275Z,988.00
2019-02-16T07:17:36.366Z,988.08
2019-02-16T07:18:36.578Z,988.12
2019-02-16T07:20:40.751Z,988.23
2019-02-16T07:21:40.980Z,988.29
2019-02-16T07:23:45.158Z,988.34
2019-02-16T07:24:45.466Z,988.45
2019-02-16T07:26:49.623Z,989.07
2019-02-16T07:27:49.853Z,989.48
2019-02-16T07:29:54.024Z,990.27
2019-02-16T07:30:54.262Z,990.61
2019-02-16T07:32:58.418Z,993.39
2019-02-16T07:33:58.661Z,994.75
2019-02-16T07:36:02.835Z,991.82
2019-02-16T07:37:03.071Z,990.87
2019-02-16T07:39:07.249Z,990.09
2019-02-16T07:40:07.491Z,989.74
2019-02-16T07:42:11.642Z,989.23
2019-02-16T07:43:11.881Z,989.45
2019-02-16T07:45:16.052Z,989.41
2019-02-16T07:46:16.354Z,989.29
2019-02-16T07:48:20.499Z,989.17
2019-02-16T07:49:20.737Z,989.08
2019-02-16T07:51:24.908Z,989.20
2019-02-16T07:52:25.147Z,989.16
2019-02-16T07:54:29.322Z,989.08
2019-02-16T07:55:29.562Z,989.11
2019-02-16T07:57:22.644Z,989.22
2019-02-16T07:58:22.884Z,989.19
2019-02-16T08:00:27.059Z,989.09
2019-02-16T08:01:27.299Z,989.40
2019-02-16T08:03:31.516Z,989.28
2019-02-16T08:04:31.763Z,989.43
2019-02-16T08:06:35.942Z,989.53
2019-02-16T08:07:36.183Z,990.04
2019-02-16T08:09:40.364Z,989.74
2019-02-16T08:10:40.607Z,989.27
2019-02-16T08:12:44.774Z,988.96
2019-02-16T08:13:45.016Z,988.87
2019-02-16T08:15:49.200Z,988.79
2019-02-16T08:16:49.444Z,988.81
2019-02-16T08:18:53.607Z,989.60
2019-02-16T08:19:53.853Z,990.89
2019-02-16T08:21:58.043Z,992.09
2019-02-16T08:22:58.292Z,992.28
2019-02-16T08:25:02.483Z,992.72
2019-02-16T08:26:02.739Z,992.83
2019-02-16T08:27:55.825Z,992.81
2019-02-16T08:28:56.074Z,992.75
2019-02-16T08:31:00.264Z,992.59
2019-02-16T08:32:00.518Z,992.63
2019-02-16T08:34:04.689Z,992.56
2019-02-16T08:35:04.935Z,992.45
2019-02-16T08:37:09.130Z,992.25
2019-02-16T08:38:09.376Z,992.14
2019-02-16T08:40:13.568Z,991.93
2019-02-16T08:41:13.818Z,991.89
2019-02-16T08:43:17.988Z,991.69
2019-02-16T08:44:18.238Z,991.55
2019-02-16T08:46:22.431Z,991.42
2019-02-16T08:47:22.680Z,991.33
2019-02-16T08:49:26.850Z,991.16
2019-02-16T08:50:27.103Z,991.06
2019-02-16T08:52:31.293Z,990.94
2019-02-16T08:53:31.545Z,990.85
2019-02-16T08:55:35.744Z,990.62
2019-02-16T08:56:35.991Z,990.53
2019-02-16T08:58:40.166Z,990.47
2019-02-16T08:59:40.417Z,990.42
2019-02-16T09:01:44.619Z,990.26
2019-02-16T09:02:44.870Z,990.19
2019-02-16T09:04:49.053Z,990.07
2019-02-16T09:05:49.297Z,990.00
2019-02-16T09:07:42.421Z,989.90
2019-02-16T09:08:42.671Z,989.90
2019-02-16T09:10:46.868Z,989.78
2019-02-16T09:11:47.121Z,989.73
2019-02-16T09:13:51.288Z,989.61
2019-02-16T09:14:51.539Z,989.57
2019-02-16T09:16:56.742Z,989.54
2019-02-16T09:17:56.995Z,989.55
2019-02-16T09:20:02.177Z,989.43
2019-02-16T09:21:02.427Z,989.43
2019-02-16T09:23:06.617Z,989.26
2019-02-16T09:24:06.869Z,988.80
2019-02-16T09:26:11.035Z,988.44
2019-02-16T09:27:11.286Z,988.38
2019-02-16T09:29:15.479Z,988.33
2019-02-16T09:30:15.729Z,988.30
2019-02-16T09:32:19.928Z,988.29
2019-02-16T09:33:20.176Z,988.28
2019-02-16T09:35:24.348Z,988.22
2019-02-16T09:36:24.598Z,988.21
2019-02-16T09:38:28.796Z,988.14
2019-02-16T09:39:29.046Z,988.13
2019-02-16T09:41:33.232Z,988.09
2019-02-16T09:42:33.479Z,988.07
2019-02-16T09:44:37.677Z,988.13
2019-02-16T09:45:37.926Z,988.13
2019-02-16T09:47:31.050Z,988.17
2019-02-16T09:48:31.298Z,988.17
2019-02-16T09:50:35.471Z,988.19
2019-02-16T09:51:35.721Z,988.52
2019-02-16T09:53:39.917Z,988.84
2019-02-16T09:54:40.171Z,988.88
2019-02-16T09:56:44.343Z,988.91
2019-02-16T09:57:44.597Z,988.93
2019-02-16T09:59:48.795Z,989.00
2019-02-16T10:00:49.050Z,989.02
2019-02-16T10:02:53.252Z,989.07
2019-02-16T10:03:53.506Z,989.06
2019-02-16T10:05:57.689Z,989.08
2019-02-16T10:06:57.938Z,989.06
2019-02-16T10:09:02.140Z,989.04
2019-02-16T10:10:02.393Z,989.05
2019-02-16T10:12:06.572Z,989.04
2019-02-16T10:13:06.828Z,989.01
2019-02-16T10:15:11.033Z,989.04
2019-02-16T10:16:11.288Z,989.01
2019-02-16T10:18:15.492Z,988.96
2019-02-16T10:19:15.750Z,988.99
2019-02-16T10:21:19.928Z,989.00
2019-02-16T10:22:20.184Z,988.98
2019-02-16T10:24:24.385Z,989.00
2019-02-16T10:25:24.638Z,988.97
2019-02-16T10:27:17.749Z,988.91
2019-02-16T10:28:18.004Z,988.90
2019-02-16T10:30:22.207Z,988.84
2019-02-16T10:31:22.460Z,988.82
2019-02-16T10:33:26.665Z,988.91
2019-02-16T10:34:26.918Z,988.95
2019-02-16T10:36:31.102Z,988.97
2019-02-16T10:37:31.358Z,988.93
2019-02-16T10:39:35.556Z,988.96
2019-02-16T10:40:35.812Z,988.97
2019-02-16T10:42:39.995Z,988.97
2019-02-16T10:43:40.252Z,989.00
2019-02-16T10:45:44.454Z,988.95
2019-02-16T10:46:44.709Z,988.96
2019-02-16T10:48:48.914Z,988.93
2019-02-16T10:49:49.170Z,988.88
2019-02-16T10:51:53.348Z,988.87
2019-02-16T10:52:53.615Z,988.82
2019-02-16T10:54:57.805Z,988.81
2019-02-16T10:55:58.060Z,988.78
2019-02-16T10:57:51.169Z,988.77
2019-02-16T10:58:51.431Z,988.76
2019-02-16T11:00:55.623Z,988.78
2019-02-16T11:01:55.875Z,988.73
2019-02-16T11:04:00.082Z,988.75
2019-02-16T11:05:00.335Z,988.74
2019-02-16T11:07:04.514Z,988.71
2019-02-16T11:08:04.772Z,988.68
2019-02-16T11:10:08.979Z,988.65
2019-02-16T11:11:09.235Z,988.68
2019-02-16T11:13:13.410Z,988.65
2019-02-16T11:14:13.668Z,988.64
2019-02-16T11:16:17.870Z,988.65
2019-02-16T11:17:18.127Z,988.61
2019-02-16T11:19:22.333Z,988.62
2019-02-16T11:20:22.588Z,988.60
2019-02-16T11:22:26.771Z,988.55
2019-02-16T11:23:27.026Z,988.52
2019-02-16T11:25:31.230Z,988.50
2019-02-16T11:26:31.486Z,988.49
2019-02-16T11:28:35.673Z,988.44
2019-02-16T11:29:35.931Z,988.41
2019-02-16T11:31:40.138Z,988.39
2019-02-16T11:32:40.399Z,988.40
2019-02-16T11:34:44.606Z,988.34
2019-02-16T11:35:44.866Z,988.34
2019-02-16T11:37:37.977Z,988.33
2019-02-16T11:38:38.239Z,988.29
2019-02-16T11:40:42.444Z,988.21
2019-02-16T11:41:42.703Z,988.21
2019-02-16T11:43:46.887Z,988.24
2019-02-16T11:44:47.190Z,988.17
2019-02-16T11:46:51.482Z,988.15
2019-02-16T11:47:51.737Z,988.10
2019-02-16T11:49:55.954Z,988.01
2019-02-16T11:50:56.253Z,987.86
2019-02-16T11:53:00.443Z,987.83
2019-02-16T11:54:00.700Z,987.78
2019-02-16T11:56:04.986Z,987.73
2019-02-16T11:57:05.240Z,987.79
2019-02-16T11:59:09.430Z,987.75
2019-02-16T12:00:09.683Z,987.75
2019-02-16T12:02:13.894Z,987.86
2019-02-16T12:03:14.152Z,987.83
2019-02-16T12:05:18.358Z,987.80
2019-02-16T12:06:18.667Z,987.83
2019-02-16T12:08:22.876Z,987.81
2019-02-16T12:09:23.123Z,987.76
2019-02-16T12:11:27.386Z,987.77
2019-02-16T12:12:27.713Z,987.76
2019-02-16T12:14:31.900Z,987.73
2019-02-16T12:15:32.157Z,987.69
2019-02-16T12:17:25.292Z,987.74
2019-02-16T12:18:25.548Z,987.75
2019-02-16T12:20:33.703Z,987.74
2019-02-16T12:21:30.011Z,987.74
2019-02-16T12:23:34.197Z,987.70
2019-02-16T12:24:34.455Z,987.65
2019-02-16T12:26:38.667Z,987.58
2019-02-16T12:27:38.924Z,987.54
2019-02-16T12:29:43.107Z,987.51
2019-02-16T12:30:43.364Z,987.52
2019-02-16T12:32:47.571Z,987.51
2019-02-16T12:33:47.828Z,987.51
2019-02-16T12:35:52.034Z,987.40
2019-02-16T12:36:52.290Z,987.38
2019-02-16T12:39:04.550Z,987.35
2019-02-16T12:39:57.756Z,987.30
2019-02-16T12:42:01.954Z,987.26
2019-02-16T12:43:02.214Z,987.21
2019-02-16T12:45:06.397Z,987.10
2019-02-16T12:46:06.651Z,987.08
2019-02-16T12:48:10.857Z,987.12
2019-02-16T12:49:11.110Z,987.11
2019-02-16T12:51:15.316Z,987.06
2019-02-16T12:52:15.571Z,987.05
2019-02-16T12:54:19.757Z,987.03
2019-02-16T12:55:20.015Z,987.02
2019-02-16T12:57:13.149Z,987.04
2019-02-16T12:58:13.406Z,986.99
2019-02-16T13:00:17.589Z,986.99
2019-02-16T13:01:17.843Z,986.96
2019-02-16T13:03:22.049Z,986.97
2019-02-16T13:04:22.303Z,986.94
2019-02-16T13:06:26.489Z,986.98
2019-02-16T13:07:26.750Z,986.97
2019-02-16T13:09:30.957Z,987.02
2019-02-16T13:10:31.220Z,986.97
2019-02-16T13:12:35.453Z,986.97
2019-02-16T13:13:35.788Z,986.89
2019-02-16T13:15:39.978Z,986.85
2019-02-16T13:16:40.238Z,986.85
2019-02-16T13:18:44.451Z,986.85
2019-02-16T13:19:44.703Z,986.85
2019-02-16T13:21:48.886Z,986.87
2019-02-16T13:22:49.221Z,986.78
2019-02-16T13:24:53.437Z,986.84
2019-02-16T13:25:53.691Z,986.78
2019-02-16T13:27:46.826Z,986.77
2019-02-16T13:28:47.086Z,986.87
2019-02-16T13:30:51.292Z,986.75
2019-02-16T13:31:51.601Z,986.76
2019-02-16T13:33:55.907Z,986.76
2019-02-16T13:34:56.217Z,986.73
2019-02-16T13:37:00.423Z,986.74
2019-02-16T13:38:00.678Z,986.71
2019-02-16T13:40:04.929Z,986.81
2019-02-16T13:41:05.215Z,986.73
2019-02-16T13:43:09.480Z,986.74
2019-02-16T13:44:09.782Z,986.73
2019-02-16T13:46:13.984Z,986.67
2019-02-16T13:47:14.247Z,986.65
2019-02-16T13:49:18.440Z,986.66
2019-02-16T13:50:20.246Z,986.66
2019-02-16T13:52:22.914Z,986.67
2019-02-16T13:53:23.208Z,986.66
2019-02-16T13:55:33.285Z,986.70
2019-02-16T13:56:27.714Z,986.66
2019-02-16T13:58:31.921Z,986.64
2019-02-16T13:59:32.176Z,986.60
2019-02-16T14:01:36.373Z,986.61
2019-02-16T14:02:36.627Z,986.61
2019-02-16T14:04:40.829Z,986.58
2019-02-16T14:05:41.088Z,986.56
2019-02-16T14:07:34.215Z,986.59
2019-02-16T14:08:34.506Z,986.58
2019-02-16T14:10:38.710Z,986.64
2019-02-16T14:11:39.002Z,986.68
2019-02-16T14:13:43.218Z,986.66
2019-02-16T14:14:43.585Z,986.70
2019-02-16T14:16:47.768Z,986.70
2019-02-16T14:17:48.094Z,986.69
2019-02-16T14:19:52.424Z,986.70
2019-02-16T14:20:52.704Z,986.69
2019-02-16T14:22:56.890Z,986.66
2019-02-16T14:23:57.175Z,986.63
2019-02-16T14:26:01.378Z,986.62
2019-02-16T14:27:01.633Z,986.66
2019-02-16T14:29:05.897Z,986.63
2019-02-16T14:30:06.193Z,986.63
2019-02-16T14:32:10.373Z,986.55
2019-02-16T14:33:10.625Z,986.63
2019-02-16T14:35:14.825Z,986.57
2019-02-16T14:36:15.078Z,986.56
2019-02-16T14:38:19.764Z,986.57
2019-02-16T14:39:19.513Z,986.53
2019-02-16T14:41:23.713Z,986.53
2019-02-16T14:42:23.968Z,986.53
2019-02-16T14:44:28.208Z,986.54
2019-02-16T14:45:28.430Z,986.52
2019-02-16T14:47:21.540Z,986.46
2019-02-16T14:48:21.790Z,986.49
2019-02-16T14:50:25.991Z,986.46
2019-02-16T14:51:26.246Z,986.49
2019-02-16T14:53:30.426Z,986.44
2019-02-16T14:54:30.680Z,986.45
2019-02-16T14:56:34.874Z,986.46
2019-02-16T14:57:35.128Z,986.41
2019-02-16T14:59:39.330Z,986.39
2019-02-16T15:00:39.582Z,986.40
2019-02-16T15:02:43.764Z,986.39
2019-02-16T15:03:44.013Z,986.40
2019-02-16T15:05:48.215Z,986.43
2019-02-16T15:06:48.464Z,986.41
2019-02-16T15:08:52.644Z,986.32
2019-02-16T15:09:52.895Z,986.39
2019-02-16T15:11:57.098Z,986.40
2019-02-16T15:12:57.352Z,986.39
2019-02-16T15:15:01.564Z,986.35
2019-02-16T15:16:01.812Z,986.33
2019-02-16T15:17:55.952Z,986.36
2019-02-16T15:18:56.203Z,986.30
2019-02-16T15:21:00.403Z,986.30
2019-02-16T15:22:00.657Z,986.30
2019-02-16T15:24:04.833Z,986.28
2019-02-16T15:25:05.090Z,986.27
2019-02-16T15:27:09.285Z,986.28
2019-02-16T15:28:09.538Z,986.34
2019-02-16T15:30:14.507Z,986.28
2019-02-16T15:31:13.990Z,986.27
2019-02-16T15:33:18.167Z,986.29
2019-02-16T15:34:18.423Z,986.29
2019-02-16T15:36:24.223Z,986.26
2019-02-16T15:37:22.865Z,986.23
2019-02-16T15:39:27.046Z,986.25
2019-02-16T15:40:27.299Z,986.29
2019-02-16T15:42:31.498Z,986.25
2019-02-16T15:43:31.745Z,986.22
2019-02-16T15:45:35.932Z,986.22
2019-02-16T15:46:36.184Z,986.22
2019-02-16T15:48:40.353Z,986.26
2019-02-16T15:49:41.154Z,986.21
2019-02-16T15:51:44.797Z,986.12
2019-02-16T15:52:45.049Z,986.10
2019-02-16T15:54:49.222Z,986.01
2019-02-16T15:55:49.470Z,986.03
2019-02-16T15:57:42.593Z,986.01
2019-02-16T15:58:42.843Z,985.98
2019-02-16T16:00:47.066Z,986.02
2019-02-16T16:01:48.667Z,986.00
2019-02-16T16:03:51.453Z,985.95
2019-02-16T16:04:51.699Z,985.92
2019-02-16T16:06:55.890Z,985.84
2019-02-16T16:07:56.133Z,985.83
2019-02-16T16:10:00.408Z,985.84
2019-02-16T16:11:00.552Z,985.82
2019-02-16T16:13:04.734Z,985.81
2019-02-16T16:14:06.522Z,985.81
2019-02-16T16:16:09.166Z,985.84
2019-02-16T16:17:09.411Z,985.82
2019-02-16T16:19:13.577Z,985.85
2019-02-16T16:20:13.820Z,985.87
2019-02-16T16:22:18.004Z,985.90
2019-02-16T16:23:18.246Z,985.94
2019-02-16T16:25:22.413Z,985.86
2019-02-16T16:26:22.656Z,985.85
2019-02-16T16:28:26.844Z,985.84
2019-02-16T16:29:27.090Z,985.83
2019-02-16T16:31:31.264Z,985.83
2019-02-16T16:32:31.509Z,985.83
2019-02-16T16:34:35.662Z,985.79
2019-02-16T16:35:35.909Z,985.78
2019-02-16T16:37:29.015Z,985.81
2019-02-16T16:38:29.258Z,985.78
2019-02-16T16:40:33.416Z,985.75
2019-02-16T16:41:33.661Z,985.76
2019-02-16T16:43:37.853Z,985.79
2019-02-16T16:44:38.093Z,985.76
2019-02-16T16:46:42.285Z,985.74
2019-02-16T16:47:42.525Z,985.75
2019-02-16T16:49:46.685Z,985.72
2019-02-16T16:50:46.929Z,985.68
2019-02-16T16:52:51.123Z,985.72
2019-02-16T16:53:51.444Z,985.71
2019-02-16T16:55:55.529Z,985.74
2019-02-16T16:56:55.770Z,985.76
2019-02-16T16:58:59.953Z,985.75
2019-02-16T17:00:00.342Z,985.78
2019-02-16T17:02:04.370Z,985.75
2019-02-16T17:03:04.610Z,985.76
2019-02-16T17:05:08.764Z,985.73
2019-02-16T17:06:09.005Z,985.74
2019-02-16T17:08:13.189Z,985.74
2019-02-16T17:09:13.431Z,985.78
2019-02-16T17:11:17.587Z,985.75
2019-02-16T17:12:17.824Z,985.75
2019-02-16T17:14:22.002Z,985.68
2019-02-16T17:15:22.239Z,985.77
2019-02-16T17:17:15.322Z,985.81
2019-02-16T17:18:15.559Z,985.75
2019-02-16T17:20:19.735Z,985.74
2019-02-16T17:21:19.974Z,985.73
2019-02-16T17:23:24.152Z,985.70
2019-02-16T17:24:24.389Z,985.76
2019-02-16T17:26:37.298Z,985.79
2019-02-16T17:27:28.787Z,985.74
2019-02-16T17:29:33.032Z,985.80
2019-02-16T17:30:34.923Z,985.83
2019-02-16T17:32:37.489Z,985.86
2019-02-16T17:33:37.726Z,985.81
2019-02-16T17:35:42.030Z,985.84
2019-02-16T17:36:42.377Z,985.86
2019-02-16T17:38:46.534Z,985.85
2019-02-16T17:39:46.800Z,985.80
2019-02-16T17:41:51.520Z,985.82
2019-02-16T17:42:51.203Z,985.79
2019-02-16T17:44:55.372Z,985.77
2019-02-16T17:45:55.610Z,985.79
2019-02-16T17:47:48.700Z,985.78
2019-02-16T17:48:48.980Z,985.84
2019-02-16T17:50:53.169Z,985.81
2019-02-16T17:51:53.399Z,985.83
2019-02-16T17:53:57.639Z,985.83
2019-02-16T17:54:57.914Z,985.85
2019-02-16T17:57:02.104Z,985.85
2019-02-16T17:58:02.342Z,985.82
2019-02-16T18:00:06.521Z,985.83
2019-02-16T18:01:06.760Z,985.81
2019-02-16T18:03:10.910Z,985.79
2019-02-16T18:04:11.189Z,985.84
2019-02-16T18:06:15.365Z,985.83
2019-02-16T18:07:15.604Z,985.86
2019-02-16T18:09:19.775Z,985.88
2019-02-16T18:10:20.017Z,985.85
2019-02-16T18:12:24.165Z,985.88
2019-02-16T18:13:24.484Z,985.85
2019-02-16T18:15:28.653Z,985.83
2019-02-16T18:16:28.887Z,985.83
2019-02-16T18:18:33.154Z,985.81
2019-02-16T18:19:33.389Z,985.83
2019-02-16T18:21:37.562Z,985.82
2019-02-16T18:22:37.797Z,985.84
2019-02-16T18:24:42.023Z,985.84
2019-02-16T18:25:42.262Z,985.83
2019-02-16T18:27:35.387Z,985.82
2019-02-16T18:28:35.609Z,985.87
2019-02-16T18:30:39.794Z,985.85
2019-02-16T18:31:40.027Z,985.81
2019-02-16T18:33:44.257Z,985.80
2019-02-16T18:34:44.488Z,985.80
2019-02-16T18:36:48.676Z,985.79
2019-02-16T18:37:48.912Z,985.79
2019-02-16T18:39:53.083Z,985.75
2019-02-16T18:40:53.320Z,985.74
2019-02-16T18:42:57.496Z,985.78
2019-02-16T18:43:59.772Z,985.78
2019-02-16T18:46:01.904Z,985.79
2019-02-16T18:47:02.135Z,985.81
2019-02-16T18:49:06.300Z,985.83
2019-02-16T18:50:06.535Z,985.83
2019-02-16T18:52:10.796Z,985.83
2019-02-16T18:53:11.070Z,985.88
2019-02-16T18:55:15.293Z,985.84
2019-02-16T18:56:15.589Z,985.84
2019-02-16T18:58:19.776Z,985.81
2019-02-16T18:59:20.012Z,985.77
2019-02-16T19:01:24.269Z,985.78
2019-02-16T19:02:24.590Z,985.78
2019-02-16T19:04:28.783Z,985.84